createdAt,value
2022-12-23T00:00:40.326Z,17.65
2022-12-23T00:03:10.112Z,17.70
2022-12-23T00:05:38.645Z,17.23
2022-12-23T00:08:07.281Z,19.25
2022-12-23T00:10:35.494Z,21.95
2022-12-23T00:13:20.881Z,18.63
2022-12-23T00:15:48.673Z,18.58
2022-12-23T00:18:17.859Z,18.08
2022-12-23T00:20:45.636Z,19.67
2022-12-23T00:23:13.384Z,20.98
2022-12-23T00:25:44.772Z,20.75
2022-12-23T00:28:14.854Z,24.33
2022-12-23T00:30:47.835Z,21.80
2022-12-23T00:33:17.832Z,19.02
2022-12-23T00:35:46.712Z,18.85
2022-12-23T00:38:14.910Z,15.98
2022-12-23T00:41:00.214Z,17.88
2022-12-23T00:43:28.514Z,16.40
2022-12-23T00:45:56.368Z,15.95
2022-12-23T00:48:42.940Z,17.90
2022-12-23T00:51:10.715Z,15.90
2022-12-23T00:53:38.502Z,19.42
2022-12-23T00:56:06.816Z,19.38
2022-12-23T00:58:34.614Z,16.60
2022-12-23T01:01:19.702Z,18.00
2022-12-23T01:04:06.141Z,16.27
2022-12-23T01:06:33.942Z,14.25
2022-12-23T01:09:01.762Z,15.55
2022-12-23T01:11:29.544Z,17.25
2022-12-23T01:13:58.915Z,14.15
2022-12-23T01:16:26.788Z,13.52
2022-12-23T01:18:55.888Z,14.98
2022-12-23T01:21:23.808Z,19.38
2022-12-23T01:23:51.608Z,17.02
2022-12-23T01:26:19.405Z,13.95
2022-12-23T01:28:47.513Z,16.38
2022-12-23T01:31:15.375Z,16.38
2022-12-23T01:33:43.184Z,14.63
2022-12-23T01:36:12.727Z,14.77
2022-12-23T01:38:40.565Z,14.35
2022-12-23T01:41:08.787Z,16.65
2022-12-23T01:43:46.914Z,17.92
2022-12-23T01:46:15.648Z,16.55
2022-12-23T01:48:46.190Z,15.10
2022-12-23T01:51:19.932Z,15.82
2022-12-23T01:53:51.468Z,17.60
2022-12-23T01:56:23.954Z,15.43
2022-12-23T01:58:54.701Z,14.15
2022-12-23T02:01:40.404Z,16.50
2022-12-23T02:04:10.823Z,16.20
2022-12-23T02:07:04.989Z,16.15
2022-12-23T02:09:35.103Z,15.80
2022-12-23T02:12:29.022Z,16.30
2022-12-23T02:15:34.898Z,14.88
2022-12-23T02:18:14.563Z,14.43
2022-12-23T02:21:02.905Z,14.63
2022-12-23T02:23:53.460Z,13.55
2022-12-23T02:26:43.026Z,13.85
2022-12-23T02:29:33.837Z,16.05
2022-12-23T02:32:11.658Z,14.63
2022-12-23T02:34:45.607Z,16.42
2022-12-23T02:37:21.199Z,15.23
2022-12-23T02:39:56.105Z,13.80
2022-12-23T02:42:26.720Z,15.02
2022-12-23T02:45:01.999Z,14.32
2022-12-23T02:47:35.758Z,14.07
2022-12-23T02:50:10.261Z,13.18
2022-12-23T02:52:40.602Z,13.02
2022-12-23T02:55:14.251Z,15.25
2022-12-23T02:57:47.239Z,13.02
2022-12-23T03:00:16.127Z,12.15
2022-12-23T03:02:45.870Z,12.50
2022-12-23T03:05:28.363Z,13.32
2022-12-23T03:07:59.479Z,13.40
2022-12-23T03:13:10.648Z,13.25
2022-12-23T03:15:48.051Z,16.88
2022-12-23T03:18:29.341Z,11.23
2022-12-23T03:21:05.581Z,14.73
2022-12-23T03:23:38.755Z,12.40
2022-12-23T03:26:13.149Z,13.10
2022-12-23T03:28:45.831Z,13.75
2022-12-23T03:31:18.904Z,13.65
2022-12-23T03:33:53.114Z,14.45
2022-12-23T03:36:25.379Z,14.43
2022-12-23T03:38:56.006Z,15.40
2022-12-23T03:41:28.881Z,13.75
2022-12-23T03:44:01.510Z,16.35
2022-12-23T03:46:32.935Z,13.00
2022-12-23T03:49:07.080Z,14.23
2022-12-23T03:51:40.689Z,13.30
2022-12-23T03:54:13.156Z,13.95
2022-12-23T03:56:44.166Z,12.98
2022-12-23T03:59:18.622Z,14.02
2022-12-23T04:01:53.798Z,17.45
2022-12-23T04:04:28.090Z,13.77
2022-12-23T04:07:00.846Z,12.40
2022-12-23T04:09:29.612Z,14.00
2022-12-23T04:11:59.315Z,13.43
2022-12-23T04:14:27.101Z,11.63
2022-12-23T04:16:58.232Z,12.15
2022-12-23T04:21:56.802Z,13.25
2022-12-23T04:24:24.932Z,11.13
2022-12-23T04:26:52.689Z,15.43
2022-12-23T04:29:20.560Z,12.57
2022-12-23T04:31:48.458Z,11.60
2022-12-23T04:34:16.286Z,11.13
2022-12-23T04:36:45.437Z,10.18
2022-12-23T04:39:13.488Z,10.18
2022-12-23T04:41:41.223Z,11.85
2022-12-23T04:44:09.201Z,11.45
2022-12-23T04:46:37.044Z,11.73
2022-12-23T04:49:04.829Z,11.80
2022-12-23T04:51:32.650Z,12.18
2022-12-23T04:54:01.739Z,13.35
2022-12-23T04:56:29.840Z,11.48
2022-12-23T04:58:57.602Z,12.88
2022-12-23T05:01:25.439Z,10.98
2022-12-23T05:03:53.256Z,12.48
2022-12-23T05:06:20.997Z,12.63
2022-12-23T05:08:48.742Z,12.18
2022-12-23T05:11:17.904Z,10.88
2022-12-23T05:13:45.703Z,11.88
2022-12-23T05:16:13.623Z,12.00
2022-12-23T05:18:41.463Z,10.65
2022-12-23T05:21:09.289Z,12.50
2022-12-23T05:23:37.074Z,10.63
2022-12-23T05:26:05.390Z,13.07
2022-12-23T05:28:34.832Z,12.80
2022-12-23T05:31:04.240Z,11.35
2022-12-23T05:33:32.567Z,11.70
2022-12-23T05:36:00.842Z,12.32
2022-12-23T05:38:29.111Z,12.18
2022-12-23T05:40:56.947Z,11.25
2022-12-23T05:43:24.940Z,13.55
2022-12-23T05:45:54.145Z,13.02
2022-12-23T05:48:22.403Z,12.25
2022-12-23T05:50:50.971Z,10.80
2022-12-23T05:53:18.951Z,12.50
2022-12-23T05:55:46.724Z,11.18
2022-12-23T05:58:14.550Z,12.48
2022-12-23T06:00:42.368Z,11.52
2022-12-23T06:03:12.058Z,10.30
2022-12-23T06:05:40.254Z,10.82
2022-12-23T06:08:08.005Z,11.82
2022-12-23T06:10:35.783Z,11.00
2022-12-23T06:13:03.578Z,12.50
2022-12-23T06:15:31.530Z,11.90
2022-12-23T06:17:59.313Z,12.38
2022-12-23T06:20:28.460Z,12.93
2022-12-23T06:22:56.220Z,11.98
2022-12-23T06:25:24.222Z,11.57
2022-12-23T06:27:51.984Z,12.73
2022-12-23T06:30:19.838Z,11.60
2022-12-23T06:32:47.624Z,11.23
2022-12-23T06:35:15.412Z,12.60
2022-12-23T06:37:44.643Z,10.63
2022-12-23T06:40:13.528Z,11.32
2022-12-23T06:42:41.354Z,11.70
2022-12-23T06:45:10.489Z,12.27
2022-12-23T06:47:38.384Z,10.82
2022-12-23T06:50:07.256Z,11.93
2022-12-23T06:52:35.058Z,11.48
2022-12-23T06:55:04.427Z,11.18
2022-12-23T06:57:32.215Z,12.00
2022-12-23T06:59:59.967Z,13.27
2022-12-23T07:02:27.937Z,13.00
2022-12-23T07:04:55.835Z,12.93
2022-12-23T07:07:23.578Z,12.90
2022-12-23T07:09:51.386Z,16.20
2022-12-23T07:12:20.470Z,12.30
2022-12-23T07:14:48.315Z,13.50
2022-12-23T07:17:16.083Z,14.02
2022-12-23T07:19:43.913Z,13.00
2022-12-23T07:22:11.695Z,13.10
2022-12-23T07:24:39.494Z,13.80
2022-12-23T07:27:07.246Z,13.80
2022-12-23T07:29:36.358Z,13.75
2022-12-23T07:32:04.785Z,11.98
2022-12-23T07:34:32.849Z,12.90
2022-12-23T07:37:03.335Z,11.60
2022-12-23T07:39:31.072Z,12.30
2022-12-23T07:42:24.979Z,12.98
2022-12-23T07:44:48.010Z,13.25
2022-12-23T07:47:15.789Z,11.98
2022-12-23T07:49:43.598Z,12.85
2022-12-23T07:52:11.439Z,11.00
2022-12-23T07:54:39.193Z,11.73
2022-12-23T07:57:07.051Z,15.68
2022-12-23T07:59:34.855Z,12.93
2022-12-23T08:02:04.161Z,36.55
2022-12-23T08:04:32.060Z,16.25
2022-12-23T08:06:59.879Z,14.95
2022-12-23T08:09:27.671Z,14.32
2022-12-23T08:11:55.526Z,15.27
2022-12-23T08:14:23.304Z,15.93
2022-12-23T08:16:51.182Z,15.27
2022-12-23T08:19:20.368Z,17.88
2022-12-23T08:21:48.122Z,14.93
2022-12-23T08:24:16.122Z,18.23
2022-12-23T08:26:43.917Z,18.92
2022-12-23T08:29:11.741Z,18.48
2022-12-23T08:31:39.692Z,21.75
2022-12-23T08:34:07.533Z,20.33
2022-12-23T08:36:37.509Z,19.50
2022-12-23T08:39:08.077Z,24.25
2022-12-23T08:41:38.745Z,19.00
2022-12-23T08:44:06.786Z,20.90
2022-12-23T08:46:35.408Z,22.92
2022-12-23T08:49:03.380Z,22.30
2022-12-23T08:51:31.221Z,23.63
2022-12-23T08:54:01.719Z,23.65
2022-12-23T08:56:32.336Z,20.25
2022-12-23T08:59:00.657Z,23.25
2022-12-23T09:01:31.352Z,21.58
2022-12-23T09:03:59.450Z,22.85
2022-12-23T09:06:30.631Z,23.27
2022-12-23T09:11:29.240Z,23.75
2022-12-23T09:13:59.282Z,24.08
2022-12-23T09:16:27.856Z,24.15
2022-12-23T09:18:55.949Z,27.35
2022-12-23T09:21:24.753Z,26.27
2022-12-23T09:23:53.191Z,26.00
2022-12-23T09:26:23.184Z,24.88
2022-12-23T09:28:53.052Z,29.95
2022-12-23T09:31:21.820Z,29.58
2022-12-23T09:33:51.305Z,26.83
2022-12-23T09:36:19.495Z,29.08
2022-12-23T09:38:47.370Z,27.88
2022-12-23T09:41:30.697Z,26.38
2022-12-23T09:44:19.675Z,26.45
2022-12-23T09:46:50.684Z,37.20
2022-12-23T09:49:19.182Z,31.58
2022-12-23T09:51:48.965Z,44.33
2022-12-23T09:54:20.637Z,35.45
2022-12-23T09:56:52.712Z,40.78
2022-12-23T09:59:34.367Z,50.92
2022-12-23T10:02:12.519Z,29.30
2022-12-23T10:04:52.461Z,34.50
2022-12-23T10:07:36.135Z,30.70
2022-12-23T10:10:14.603Z,32.63
2022-12-23T10:12:47.135Z,26.70
2022-12-23T10:15:26.938Z,32.10
2022-12-23T10:17:59.824Z,27.95
2022-12-23T10:20:37.224Z,30.55
2022-12-23T10:23:09.825Z,31.55
2022-12-23T10:25:41.895Z,25.90
2022-12-23T10:28:10.919Z,26.00
2022-12-23T10:31:11.044Z,27.13
2022-12-23T10:33:40.267Z,27.55
2022-12-23T10:36:15.035Z,25.98
2022-12-23T10:38:55.005Z,25.02
2022-12-23T10:41:34.226Z,26.50
2022-12-23T10:44:19.242Z,24.63
2022-12-23T10:46:56.148Z,23.40
2022-12-23T10:49:36.881Z,20.88
2022-12-23T10:52:11.647Z,23.48
2022-12-23T10:54:40.538Z,20.77
2022-12-23T10:57:09.867Z,23.83
2022-12-23T10:59:38.014Z,22.48
2022-12-23T11:02:25.540Z,22.45
2022-12-23T11:04:53.437Z,24.30
2022-12-23T11:07:44.139Z,25.00
2022-12-23T11:10:18.654Z,27.33
2022-12-23T11:12:48.865Z,27.42
2022-12-23T11:15:29.578Z,26.60
2022-12-23T11:18:04.988Z,27.73
2022-12-23T11:20:33.683Z,28.38
2022-12-23T11:23:03.245Z,31.90
2022-12-23T11:25:34.499Z,32.08
2022-12-23T11:30:34.115Z,30.63
2022-12-23T11:33:03.557Z,31.23
2022-12-23T11:35:33.586Z,34.53
2022-12-23T11:38:03.307Z,35.05
2022-12-23T11:40:35.186Z,35.80
2022-12-23T11:43:05.782Z,43.60
2022-12-23T11:45:36.680Z,41.50
2022-12-23T11:48:07.561Z,46.00
2022-12-23T11:50:37.247Z,41.63
2022-12-23T11:53:12.664Z,46.30
2022-12-23T11:55:47.515Z,56.17
2022-12-23T11:58:22.920Z,58.10
2022-12-23T12:00:56.043Z,53.72
2022-12-23T12:03:31.378Z,65.53
2022-12-23T12:06:02.044Z,54.78
2022-12-23T12:08:37.420Z,55.75
2022-12-23T12:11:08.653Z,44.45
2022-12-23T12:16:21.165Z,45.67
2022-12-23T12:18:55.753Z,46.67
2022-12-23T12:21:27.054Z,45.17
2022-12-23T12:24:17.696Z,45.40
2022-12-23T12:26:51.254Z,40.92
2022-12-23T12:29:26.195Z,39.72
2022-12-23T12:31:57.818Z,40.38
2022-12-23T12:34:39.092Z,36.28
2022-12-23T12:37:20.975Z,38.30
2022-12-23T12:39:53.866Z,33.40
2022-12-23T12:42:28.793Z,35.00
2022-12-23T12:45:04.354Z,34.83
2022-12-23T12:47:53.281Z,29.77
2022-12-23T12:50:28.538Z,30.55
2022-12-23T12:53:01.082Z,30.42
2022-12-23T12:55:32.843Z,30.75
2022-12-23T12:58:02.660Z,30.25
2022-12-23T13:00:39.362Z,30.95
2022-12-23T13:03:28.143Z,27.48
2022-12-23T13:06:05.523Z,29.27
2022-12-23T13:08:50.047Z,32.30
2022-12-23T13:11:28.177Z,29.20
2022-12-23T13:14:03.750Z,32.03
2022-12-23T13:16:42.009Z,32.17
2022-12-23T13:19:20.331Z,32.22
2022-12-23T13:21:52.835Z,29.42
2022-12-23T13:24:28.623Z,30.77
2022-12-23T13:27:06.916Z,29.75
2022-12-23T13:29:52.001Z,30.08
2022-12-23T13:32:37.467Z,28.50
2022-12-23T13:35:18.829Z,30.90
2022-12-23T13:37:58.067Z,31.33
2022-12-23T13:40:37.540Z,29.10
2022-12-23T13:43:13.762Z,27.38
2022-12-23T13:45:43.627Z,28.85
2022-12-23T13:48:31.729Z,25.85
2022-12-23T13:51:07.006Z,23.75
2022-12-23T13:53:53.676Z,23.15
2022-12-23T13:56:30.863Z,22.25
2022-12-23T13:58:59.296Z,22.00
2022-12-23T14:01:36.588Z,24.17
2022-12-23T14:04:38.320Z,27.55
2022-12-23T14:07:19.238Z,22.25
2022-12-23T14:09:53.145Z,21.73
2022-12-23T14:12:26.651Z,20.73
2022-12-23T14:15:19.286Z,23.08
2022-12-23T14:18:02.575Z,21.23
2022-12-23T14:20:44.669Z,22.73
2022-12-23T14:23:27.714Z,25.13
2022-12-23T14:26:15.135Z,22.00
2022-12-23T14:28:58.861Z,23.83
2022-12-23T14:31:39.060Z,22.88
2022-12-23T14:34:24.122Z,22.25
2022-12-23T14:37:30.495Z,22.92
2022-12-23T14:39:59.363Z,20.45
2022-12-23T14:42:37.321Z,22.67
2022-12-23T14:45:36.645Z,23.40
2022-12-23T14:48:33.135Z,21.00
2022-12-23T14:51:02.667Z,20.40
2022-12-23T14:53:31.682Z,20.38
2022-12-23T14:56:21.639Z,19.85
2022-12-23T14:59:04.325Z,21.30
2022-12-23T15:01:37.892Z,19.80
2022-12-23T15:04:17.229Z,20.45
2022-12-23T15:06:48.404Z,21.95
2022-12-23T15:09:23.549Z,19.45
2022-12-23T15:11:52.587Z,19.75
2022-12-23T15:14:31.661Z,21.08
2022-12-23T15:16:59.656Z,19.95
2022-12-23T15:19:28.963Z,19.55
2022-12-23T15:22:17.295Z,21.40
2022-12-23T15:24:47.530Z,18.30
2022-12-23T15:27:27.382Z,19.48
2022-12-23T15:29:58.750Z,18.60
2022-12-23T15:32:28.315Z,19.80
2022-12-23T15:35:02.855Z,21.15
2022-12-23T15:37:32.383Z,21.05
2022-12-23T15:40:11.385Z,20.30
2022-12-23T15:42:40.329Z,18.75
2022-12-23T15:45:31.324Z,19.27
2022-12-23T15:47:59.393Z,20.05
2022-12-23T15:50:29.140Z,18.65
2022-12-23T15:53:05.122Z,18.98
2022-12-23T15:55:35.254Z,17.38
2022-12-23T15:58:04.838Z,18.77
2022-12-23T16:00:50.686Z,18.73
2022-12-23T16:03:28.882Z,20.00
2022-12-23T16:06:11.158Z,19.33
2022-12-23T16:08:39.722Z,19.15
2022-12-23T16:11:14.903Z,17.73
2022-12-23T16:13:58.032Z,19.33
2022-12-23T16:16:38.491Z,16.40
2022-12-23T16:19:06.757Z,16.30
2022-12-23T16:21:37.538Z,18.95
2022-12-23T16:24:09.694Z,19.13
2022-12-23T16:26:41.876Z,17.40
2022-12-23T16:29:11.836Z,17.70
2022-12-23T16:31:48.281Z,17.10
2022-12-23T16:34:20.284Z,17.33
2022-12-23T16:36:48.097Z,19.25
2022-12-23T16:39:21.566Z,17.75
2022-12-23T16:41:49.845Z,16.23
2022-12-23T16:44:17.653Z,17.85
2022-12-23T16:46:50.451Z,17.65
2022-12-23T16:49:20.355Z,15.10
2022-12-23T16:51:48.557Z,15.98
2022-12-23T16:54:18.252Z,16.48
2022-12-23T16:56:47.513Z,18.98
2022-12-23T16:59:15.945Z,18.40
2022-12-23T17:01:47.281Z,20.83
2022-12-23T17:04:15.541Z,19.40
2022-12-23T17:06:43.431Z,20.35
2022-12-23T17:09:12.246Z,20.00
2022-12-23T17:11:43.333Z,19.58
2022-12-23T17:14:16.246Z,20.08
2022-12-23T17:16:46.324Z,21.15
2022-12-23T17:19:14.550Z,23.02
2022-12-23T17:21:45.437Z,23.35
2022-12-23T17:24:17.988Z,20.23
2022-12-23T17:26:45.794Z,19.15
2022-12-23T17:29:13.745Z,21.70
2022-12-23T17:31:43.169Z,22.30
2022-12-23T17:34:16.747Z,22.85
2022-12-23T17:36:49.505Z,24.42
2022-12-23T17:39:18.321Z,20.13
2022-12-23T17:41:46.304Z,20.95
2022-12-23T17:44:16.116Z,20.75
2022-12-23T17:46:44.264Z,18.80
2022-12-23T17:49:13.564Z,20.80
2022-12-23T17:51:42.278Z,19.15
2022-12-23T17:54:25.328Z,20.25
2022-12-23T17:59:21.317Z,20.65
2022-12-23T18:01:49.426Z,20.95
2022-12-23T18:04:18.665Z,20.15
2022-12-23T18:06:49.425Z,20.80
2022-12-23T18:09:18.807Z,22.05
2022-12-23T18:11:50.358Z,21.23
2022-12-23T18:14:23.954Z,18.25
2022-12-23T18:16:52.167Z,35.85
2022-12-23T18:19:22.259Z,20.05
2022-12-23T18:21:50.641Z,23.90
2022-12-23T18:24:19.280Z,17.25
2022-12-23T18:26:47.551Z,19.02
2022-12-23T18:29:15.402Z,19.90
2022-12-23T18:31:51.017Z,17.55
2022-12-23T18:34:22.119Z,21.00
2022-12-23T18:36:51.660Z,24.95
2022-12-23T18:39:19.927Z,22.80
2022-12-23T18:41:47.706Z,32.25
2022-12-23T18:44:18.398Z,28.80
2022-12-23T18:46:46.255Z,33.80
2022-12-23T18:49:14.169Z,30.75
2022-12-23T18:51:43.308Z,42.30
2022-12-23T18:54:14.763Z,24.77
2022-12-23T18:56:43.006Z,32.75
2022-12-23T18:59:18.568Z,28.45
2022-12-23T19:01:48.272Z,32.85
2022-12-23T19:04:16.182Z,30.65
2022-12-23T19:06:45.779Z,33.00
2022-12-23T19:09:17.295Z,33.17
2022-12-23T19:11:46.871Z,30.98
2022-12-23T19:14:14.738Z,31.05
2022-12-23T19:16:46.168Z,36.15
2022-12-23T19:19:19.006Z,31.60
2022-12-23T19:21:48.136Z,30.02
2022-12-23T19:24:15.955Z,31.65
2022-12-23T19:26:43.901Z,28.88
2022-12-23T19:29:11.692Z,34.10
2022-12-23T19:31:39.522Z,28.60
2022-12-23T19:34:12.881Z,31.48
2022-12-23T19:36:43.149Z,29.25
2022-12-23T19:39:16.154Z,32.28
2022-12-23T19:41:44.638Z,36.83
2022-12-23T19:44:12.500Z,31.25
2022-12-23T19:46:40.408Z,32.75
2022-12-23T19:49:08.249Z,37.38
2022-12-23T19:51:36.046Z,32.80
2022-12-23T19:54:03.950Z,32.17
2022-12-23T19:56:33.105Z,32.42
2022-12-23T19:59:00.894Z,25.80
2022-12-23T20:01:29.112Z,32.63
2022-12-23T20:03:57.600Z,25.85
2022-12-23T20:06:27.567Z,28.80
2022-12-23T20:09:00.253Z,29.00
2022-12-23T20:11:30.602Z,28.58
2022-12-23T20:14:01.501Z,24.58
2022-12-23T20:16:30.294Z,26.90
2022-12-23T20:18:58.889Z,28.05
2022-12-23T20:21:26.731Z,31.33
2022-12-23T20:23:54.719Z,27.35
2022-12-23T20:26:23.661Z,33.40
2022-12-23T20:28:51.857Z,22.73
2022-12-23T20:31:23.249Z,30.55
2022-12-23T20:33:52.617Z,29.08
2022-12-23T20:36:22.927Z,30.58
2022-12-23T20:38:52.227Z,29.30
2022-12-23T20:41:22.525Z,27.55
2022-12-23T20:44:23.475Z,21.88
2022-12-23T20:46:39.986Z,24.67
2022-12-23T20:49:07.812Z,22.15
2022-12-23T20:51:35.658Z,22.85
2022-12-23T20:54:03.460Z,22.67
2022-12-23T20:56:31.712Z,24.23
2022-12-23T20:59:00.363Z,17.25
2022-12-23T21:01:30.600Z,22.65
2022-12-23T21:04:01.622Z,17.42
2022-12-23T21:06:31.096Z,17.10
2022-12-23T21:09:00.410Z,20.40
2022-12-23T21:11:36.920Z,15.43
2022-12-23T21:14:07.028Z,16.23
2022-12-23T21:16:36.617Z,17.13
2022-12-23T21:19:06.782Z,16.42
2022-12-23T21:21:35.038Z,16.33
2022-12-23T21:24:05.167Z,13.00
2022-12-23T21:26:34.858Z,14.80
2022-12-23T21:29:05.930Z,18.17
2022-12-23T21:31:35.765Z,16.52
2022-12-23T21:34:03.989Z,20.38
2022-12-23T21:36:35.189Z,14.25
2022-12-23T21:41:32.870Z,18.30
2022-12-23T21:44:01.577Z,15.35
2022-12-23T21:46:30.391Z,14.20
2022-12-23T21:49:00.001Z,12.98
2022-12-23T21:51:35.039Z,17.15
2022-12-23T21:54:09.702Z,19.17
2022-12-23T21:56:37.551Z,14.43
2022-12-23T21:59:08.194Z,17.88
2022-12-23T22:01:36.300Z,15.18
2022-12-23T22:04:04.271Z,17.45
2022-12-23T22:06:35.913Z,16.83
2022-12-23T22:09:05.327Z,16.52
2022-12-23T22:11:36.428Z,15.02
2022-12-23T22:14:06.322Z,16.05
2022-12-23T22:16:35.239Z,19.67
2022-12-23T22:19:04.038Z,19.77
2022-12-23T22:21:34.522Z,17.60
2022-12-23T22:24:02.828Z,14.30
2022-12-23T22:26:32.766Z,17.77
2022-12-23T22:29:03.137Z,19.17
2022-12-23T22:31:35.379Z,18.95
2022-12-23T22:34:05.532Z,18.30
2022-12-23T22:36:34.035Z,20.48
2022-12-23T22:39:04.369Z,13.52
2022-12-23T22:41:32.773Z,16.90
2022-12-23T22:44:01.919Z,13.98
2022-12-23T22:46:30.071Z,15.52
2022-12-23T22:48:58.837Z,14.77
2022-12-23T22:51:28.871Z,17.65
2022-12-23T22:53:57.619Z,16.00
2022-12-23T22:56:26.862Z,17.13
2022-12-23T22:58:55.588Z,18.67
2022-12-23T23:01:26.483Z,17.45
2022-12-23T23:03:57.742Z,21.17
2022-12-23T23:08:53.959Z,22.65
2022-12-23T23:11:22.099Z,21.55
2022-12-23T23:13:50.147Z,16.95
2022-12-23T23:16:18.331Z,14.75
2022-12-23T23:18:47.594Z,19.00
2022-12-23T23:21:16.024Z,16.25
2022-12-23T23:23:43.961Z,19.88
2022-12-23T23:26:12.000Z,19.17
2022-12-23T23:28:40.693Z,20.15
2022-12-23T23:31:40.597Z,19.27
2022-12-23T23:33:58.865Z,17.95
2022-12-23T23:36:26.911Z,13.18
2022-12-23T23:38:54.685Z,19.70
2022-12-23T23:41:24.025Z,18.95
2022-12-23T23:43:52.214Z,17.40
2022-12-23T23:46:20.518Z,21.15
2022-12-23T23:48:48.785Z,15.38
2022-12-23T23:51:17.898Z,20.65
2022-12-23T23:53:45.750Z,21.55
2022-12-23T23:56:13.555Z,16.80
2022-12-23T23:58:41.425Z,22.17
